sensor_id;sensor_type;location;lat;lon;timestamp;P1;durP1;ratioP1;P2;durP2;ratioP2
9270;SDS011;4673;53.458;9.940;2023-03-24T00:00:06;3.47;;;3.47;;
9270;SDS011;4673;53.458;9.940;2023-03-24T00:02:38;3.40;;;3.40;;
9270;SDS011;4673;53.458;9.940;2023-03-24T00:05:16;3.27;;;3.27;;
9270;SDS011;4673;53.458;9.940;2023-03-24T00:07:43;3.23;;;3.23;;
9270;SDS011;4673;53.458;9.940;2023-03-24T00:10:11;3.47;;;3.47;;
9270;SDS011;4673;53.458;9.940;2023-03-24T00:12:39;3.30;;;3.30;;
9270;SDS011;4673;53.458;9.940;2023-03-24T00:15:07;3.43;;;3.43;;
9270;SDS011;4673;53.458;9.940;2023-03-24T00:17:36;3.67;;;3.67;;
9270;SDS011;4673;53.458;9.940;2023-03-24T00:20:05;3.40;;;3.40;;
9270;SDS011;4673;53.458;9.940;2023-03-24T00:22:39;3.30;;;3.30;;
9270;SDS011;4673;53.458;9.940;2023-03-24T00:25:06;3.57;;;3.57;;
9270;SDS011;4673;53.458;9.940;2023-03-24T00:27:33;3.87;;;3.87;;
9270;SDS011;4673;53.458;9.940;2023-03-24T00:30:03;3.70;;;3.70;;
9270;SDS011;4673;53.458;9.940;2023-03-24T00:32:31;3.40;;;3.40;;
9270;SDS011;4673;53.458;9.940;2023-03-24T00:34:56;3.70;;;3.70;;
9270;SDS011;4673;53.458;9.940;2023-03-24T00:37:22;3.33;;;3.33;;
9270;SDS011;4673;53.458;9.940;2023-03-24T00:39:48;3.27;;;3.27;;
9270;SDS011;4673;53.458;9.940;2023-03-24T00:42:15;2.93;;;2.93;;
9270;SDS011;4673;53.458;9.940;2023-03-24T00:44:41;3.30;;;3.30;;
9270;SDS011;4673;53.458;9.940;2023-03-24T00:47:09;3.43;;;3.43;;
9270;SDS011;4673;53.458;9.940;2023-03-24T00:49:35;3.30;;;3.30;;
9270;SDS011;4673;53.458;9.940;2023-03-24T00:54:44;3.57;;;3.57;;
9270;SDS011;4673;53.458;9.940;2023-03-24T00:57:12;3.40;;;3.40;;
9270;SDS011;4673;53.458;9.940;2023-03-24T00:59:39;3.07;;;3.07;;
9270;SDS011;4673;53.458;9.940;2023-03-24T01:02:13;3.80;;;3.80;;
9270;SDS011;4673;53.458;9.940;2023-03-24T01:04:43;3.27;;;3.27;;
9270;SDS011;4673;53.458;9.940;2023-03-24T01:07:11;3.53;;;3.53;;
9270;SDS011;4673;53.458;9.940;2023-03-24T01:09:42;3.33;;;3.33;;
9270;SDS011;4673;53.458;9.940;2023-03-24T01:12:27;3.57;;;3.57;;
9270;SDS011;4673;53.458;9.940;2023-03-24T01:14:56;3.43;;;3.43;;
9270;SDS011;4673;53.458;9.940;2023-03-24T01:17:22;4.03;;;4.03;;
9270;SDS011;4673;53.458;9.940;2023-03-24T01:19:50;4.20;;;4.20;;
9270;SDS011;4673;53.458;9.940;2023-03-24T01:22:16;3.77;;;3.77;;
9270;SDS011;4673;53.458;9.940;2023-03-24T01:24:44;4.00;;;4.00;;
9270;SDS011;4673;53.458;9.940;2023-03-24T01:27:11;3.80;;;3.80;;
9270;SDS011;4673;53.458;9.940;2023-03-24T01:29:37;3.07;;;3.07;;
9270;SDS011;4673;53.458;9.940;2023-03-24T01:32:03;2.90;;;2.90;;
9270;SDS011;4673;53.458;9.940;2023-03-24T01:34:29;3.10;;;3.10;;
9270;SDS011;4673;53.458;9.940;2023-03-24T01:36:56;3.53;;;3.53;;
9270;SDS011;4673;53.458;9.940;2023-03-24T01:39:21;3.40;;;3.40;;
9270;SDS011;4673;53.458;9.940;2023-03-24T01:41:47;3.53;;;3.53;;
9270;SDS011;4673;53.458;9.940;2023-03-24T01:47:10;2.80;;;2.80;;
9270;SDS011;4673;53.458;9.940;2023-03-24T01:49:44;3.00;;;3.00;;
9270;SDS011;4673;53.458;9.940;2023-03-24T01:52:12;3.40;;;3.40;;
9270;SDS011;4673;53.458;9.940;2023-03-24T01:54:46;3.00;;;3.00;;
9270;SDS011;4673;53.458;9.940;2023-03-24T01:57:21;3.63;;;3.63;;
9270;SDS011;4673;53.458;9.940;2023-03-24T01:59:54;3.80;;;3.80;;
9270;SDS011;4673;53.458;9.940;2023-03-24T02:02:23;3.47;;;3.47;;
9270;SDS011;4673;53.458;9.940;2023-03-24T02:04:54;3.80;;;3.80;;
9270;SDS011;4673;53.458;9.940;2023-03-24T02:10:02;3.10;;;3.10;;
9270;SDS011;4673;53.458;9.940;2023-03-24T02:12:31;3.47;;;3.47;;
9270;SDS011;4673;53.458;9.940;2023-03-24T02:14:57;3.57;;;3.57;;
9270;SDS011;4673;53.458;9.940;2023-03-24T02:17:37;3.53;;;3.53;;
9270;SDS011;4673;53.458;9.940;2023-03-24T02:34:30;3.20;;;3.20;;
9270;SDS011;4673;53.458;9.940;2023-03-24T02:40:17;3.97;;;3.97;;
9270;SDS011;4673;53.458;9.940;2023-03-24T02:45:35;3.50;;;3.50;;
9270;SDS011;4673;53.458;9.940;2023-03-24T02:48:07;3.80;;;3.80;;
9270;SDS011;4673;53.458;9.940;2023-03-24T02:50:45;3.50;;;3.50;;
9270;SDS011;4673;53.458;9.940;2023-03-24T02:58:58;3.70;;;3.70;;
9270;SDS011;4673;53.458;9.940;2023-03-24T03:01:27;4.03;;;4.03;;
9270;SDS011;4673;53.458;9.940;2023-03-24T03:04:01;4.20;;;4.20;;
9270;SDS011;4673;53.458;9.940;2023-03-24T03:06:34;4.83;;;4.83;;
9270;SDS011;4673;53.458;9.940;2023-03-24T03:09:05;4.10;;;4.10;;
9270;SDS011;4673;53.458;9.940;2023-03-24T03:11:33;4.77;;;4.77;;
9270;SDS011;4673;53.458;9.940;2023-03-24T03:14:14;4.27;;;4.27;;
9270;SDS011;4673;53.458;9.940;2023-03-24T03:17:00;4.77;;;4.77;;
9270;SDS011;4673;53.458;9.940;2023-03-24T03:19:34;4.10;;;4.10;;
9270;SDS011;4673;53.458;9.940;2023-03-24T03:22:07;3.70;;;3.70;;
9270;SDS011;4673;53.458;9.940;2023-03-24T03:24:40;4.77;;;4.77;;
9270;SDS011;4673;53.458;9.940;2023-03-24T03:27:12;3.87;;;3.87;;
9270;SDS011;4673;53.458;9.940;2023-03-24T03:29:44;4.10;;;4.10;;
9270;SDS011;4673;53.458;9.940;2023-03-24T03:32:17;3.93;;;3.93;;
9270;SDS011;4673;53.458;9.940;2023-03-24T03:40:31;4.13;;;4.13;;
9270;SDS011;4673;53.458;9.940;2023-03-24T03:43:03;4.30;;;4.30;;
9270;SDS011;4673;53.458;9.940;2023-03-24T03:45:31;5.23;;;5.23;;
9270;SDS011;4673;53.458;9.940;2023-03-24T03:48:00;4.83;;;4.83;;
9270;SDS011;4673;53.458;9.940;2023-03-24T03:50:26;4.70;;;4.70;;
9270;SDS011;4673;53.458;9.940;2023-03-24T03:52:52;4.70;;;4.70;;
9270;SDS011;4673;53.458;9.940;2023-03-24T03:55:18;5.43;;;5.43;;
9270;SDS011;4673;53.458;9.940;2023-03-24T03:57:44;4.63;;;4.63;;
9270;SDS011;4673;53.458;9.940;2023-03-24T04:00:14;4.40;;;4.40;;
9270;SDS011;4673;53.458;9.940;2023-03-24T04:21:56;5.70;;;5.70;;
9270;SDS011;4673;53.458;9.940;2023-03-24T04:24:32;5.73;;;5.73;;
9270;SDS011;4673;53.458;9.940;2023-03-24T04:32:26;5.00;;;5.00;;
9270;SDS011;4673;53.458;9.940;2023-03-24T04:35:09;4.93;;;4.93;;
9270;SDS011;4673;53.458;9.940;2023-03-24T04:37:44;5.13;;;5.13;;
9270;SDS011;4673;53.458;9.940;2023-03-24T04:40:12;5.90;;;5.90;;
9270;SDS011;4673;53.458;9.940;2023-03-24T04:42:42;5.60;;;5.60;;
9270;SDS011;4673;53.458;9.940;2023-03-24T04:45:10;4.73;;;4.73;;
9270;SDS011;4673;53.458;9.940;2023-03-24T04:47:41;5.00;;;5.00;;
9270;SDS011;4673;53.458;9.940;2023-03-24T04:50:28;5.63;;;5.63;;
9270;SDS011;4673;53.458;9.940;2023-03-24T04:52:56;4.93;;;4.93;;
9270;SDS011;4673;53.458;9.940;2023-03-24T04:58:19;5.43;;;5.43;;
9270;SDS011;4673;53.458;9.940;2023-03-24T05:00:46;4.47;;;4.47;;
9270;SDS011;4673;53.458;9.940;2023-03-24T05:03:13;5.10;;;5.10;;
9270;SDS011;4673;53.458;9.940;2023-03-24T05:05:40;5.57;;;5.57;;
9270;SDS011;4673;53.458;9.940;2023-03-24T05:08:06;5.87;;;5.87;;
9270;SDS011;4673;53.458;9.940;2023-03-24T05:10:32;5.27;;;5.27;;
9270;SDS011;4673;53.458;9.940;2023-03-24T05:12:59;5.60;;;5.60;;
9270;SDS011;4673;53.458;9.940;2023-03-24T05:15:25;5.53;;;5.53;;
9270;SDS011;4673;53.458;9.940;2023-03-24T05:17:51;5.87;;;5.87;;
9270;SDS011;4673;53.458;9.940;2023-03-24T05:20:17;5.30;;;5.30;;
9270;SDS011;4673;53.458;9.940;2023-03-24T05:22:43;5.37;;;5.37;;
9270;SDS011;4673;53.458;9.940;2023-03-24T05:25:09;5.20;;;5.20;;
9270;SDS011;4673;53.458;9.940;2023-03-24T05:27:35;4.97;;;4.97;;
9270;SDS011;4673;53.458;9.940;2023-03-24T05:30:00;6.07;;;6.07;;
9270;SDS011;4673;53.458;9.940;2023-03-24T05:32:28;4.60;;;4.60;;
9270;SDS011;4673;53.458;9.940;2023-03-24T05:34:53;5.33;;;5.33;;
9270;SDS011;4673;53.458;9.940;2023-03-24T05:37:19;4.93;;;4.93;;
9270;SDS011;4673;53.458;9.940;2023-03-24T05:39:45;5.20;;;5.20;;
9270;SDS011;4673;53.458;9.940;2023-03-24T05:42:10;5.60;;;5.60;;
9270;SDS011;4673;53.458;9.940;2023-03-24T05:44:36;4.93;;;4.93;;
9270;SDS011;4673;53.458;9.940;2023-03-24T05:47:02;5.40;;;5.40;;
9270;SDS011;4673;53.458;9.940;2023-03-24T05:49:28;5.70;;;5.70;;
9270;SDS011;4673;53.458;9.940;2023-03-24T05:51:54;5.17;;;5.17;;
9270;SDS011;4673;53.458;9.940;2023-03-24T05:54:20;5.70;;;5.70;;
9270;SDS011;4673;53.458;9.940;2023-03-24T05:56:46;5.37;;;5.37;;
9270;SDS011;4673;53.458;9.940;2023-03-24T05:59:12;6.50;;;6.50;;
9270;SDS011;4673;53.458;9.940;2023-03-24T06:01:38;4.80;;;4.80;;
9270;SDS011;4673;53.458;9.940;2023-03-24T06:04:06;5.70;;;5.70;;
9270;SDS011;4673;53.458;9.940;2023-03-24T06:06:32;5.80;;;5.80;;
9270;SDS011;4673;53.458;9.940;2023-03-24T06:08:59;5.03;;;5.03;;
9270;SDS011;4673;53.458;9.940;2023-03-24T06:11:28;4.80;;;4.80;;
9270;SDS011;4673;53.458;9.940;2023-03-24T06:13:54;4.80;;;4.80;;
9270;SDS011;4673;53.458;9.940;2023-03-24T06:16:27;4.70;;;4.70;;
9270;SDS011;4673;53.458;9.940;2023-03-24T06:18:53;5.03;;;5.03;;
9270;SDS011;4673;53.458;9.940;2023-03-24T06:21:20;3.90;;;3.90;;
9270;SDS011;4673;53.458;9.940;2023-03-24T06:23:46;4.10;;;4.10;;
9270;SDS011;4673;53.458;9.940;2023-03-24T06:26:12;4.70;;;4.70;;
9270;SDS011;4673;53.458;9.940;2023-03-24T06:28:39;4.37;;;4.37;;
9270;SDS011;4673;53.458;9.940;2023-03-24T06:31:06;4.10;;;4.10;;
9270;SDS011;4673;53.458;9.940;2023-03-24T06:33:38;4.27;;;4.27;;
9270;SDS011;4673;53.458;9.940;2023-03-24T06:36:07;4.50;;;4.50;;
9270;SDS011;4673;53.458;9.940;2023-03-24T06:38:34;3.90;;;3.90;;
9270;SDS011;4673;53.458;9.940;2023-03-24T06:41:00;4.97;;;4.97;;
9270;SDS011;4673;53.458;9.940;2023-03-24T06:43:29;4.87;;;4.87;;
9270;SDS011;4673;53.458;9.940;2023-03-24T06:45:55;4.73;;;4.73;;
9270;SDS011;4673;53.458;9.940;2023-03-24T06:48:21;5.33;;;5.33;;
9270;SDS011;4673;53.458;9.940;2023-03-24T06:50:48;4.87;;;4.87;;
9270;SDS011;4673;53.458;9.940;2023-03-24T06:53:13;5.10;;;5.10;;
9270;SDS011;4673;53.458;9.940;2023-03-24T06:55:39;5.20;;;5.20;;
9270;SDS011;4673;53.458;9.940;2023-03-24T06:58:05;4.80;;;4.80;;
9270;SDS011;4673;53.458;9.940;2023-03-24T07:00:31;4.43;;;4.43;;
9270;SDS011;4673;53.458;9.940;2023-03-24T07:02:56;4.40;;;4.40;;
9270;SDS011;4673;53.458;9.940;2023-03-24T07:05:22;4.40;;;4.40;;
9270;SDS011;4673;53.458;9.940;2023-03-24T07:07:48;4.00;;;4.00;;
9270;SDS011;4673;53.458;9.940;2023-03-24T07:10:14;4.50;;;4.50;;
9270;SDS011;4673;53.458;9.940;2023-03-24T07:12:40;3.83;;;3.83;;
9270;SDS011;4673;53.458;9.940;2023-03-24T07:15:06;4.20;;;4.20;;
9270;SDS011;4673;53.458;9.940;2023-03-24T07:17:33;3.83;;;3.83;;
9270;SDS011;4673;53.458;9.940;2023-03-24T07:19:59;3.03;;;3.03;;
9270;SDS011;4673;53.458;9.940;2023-03-24T07:22:25;2.80;;;2.80;;
9270;SDS011;4673;53.458;9.940;2023-03-24T07:24:51;2.23;;;2.23;;
9270;SDS011;4673;53.458;9.940;2023-03-24T07:27:16;2.63;;;2.63;;
9270;SDS011;4673;53.458;9.940;2023-03-24T07:29:42;2.80;;;2.80;;
9270;SDS011;4673;53.458;9.940;2023-03-24T07:32:08;2.40;;;2.40;;
9270;SDS011;4673;53.458;9.940;2023-03-24T07:34:34;2.20;;;2.20;;
9270;SDS011;4673;53.458;9.940;2023-03-24T07:37:00;2.70;;;2.70;;
9270;SDS011;4673;53.458;9.940;2023-03-24T07:39:26;1.90;;;1.90;;
9270;SDS011;4673;53.458;9.940;2023-03-24T07:41:52;2.23;;;2.23;;
9270;SDS011;4673;53.458;9.940;2023-03-24T07:44:18;2.57;;;2.57;;
9270;SDS011;4673;53.458;9.940;2023-03-24T07:46:43;2.27;;;2.27;;
9270;SDS011;4673;53.458;9.940;2023-03-24T07:49:09;2.30;;;2.30;;
9270;SDS011;4673;53.458;9.940;2023-03-24T07:51:35;2.50;;;2.50;;
9270;SDS011;4673;53.458;9.940;2023-03-24T07:54:01;2.40;;;2.40;;
9270;SDS011;4673;53.458;9.940;2023-03-24T07:56:27;2.30;;;2.30;;
9270;SDS011;4673;53.458;9.940;2023-03-24T07:58:52;1.80;;;1.80;;
9270;SDS011;4673;53.458;9.940;2023-03-24T08:01:18;2.00;;;2.00;;
9270;SDS011;4673;53.458;9.940;2023-03-24T08:03:44;1.97;;;1.97;;
9270;SDS011;4673;53.458;9.940;2023-03-24T08:06:12;1.77;;;1.77;;
9270;SDS011;4673;53.458;9.940;2023-03-24T08:08:38;1.97;;;1.97;;
9270;SDS011;4673;53.458;9.940;2023-03-24T08:11:04;1.60;;;1.60;;
9270;SDS011;4673;53.458;9.940;2023-03-24T08:13:30;1.97;;;1.97;;
9270;SDS011;4673;53.458;9.940;2023-03-24T08:15:56;1.73;;;1.73;;
9270;SDS011;4673;53.458;9.940;2023-03-24T08:18:22;2.33;;;2.33;;
9270;SDS011;4673;53.458;9.940;2023-03-24T08:20:49;2.20;;;2.20;;
9270;SDS011;4673;53.458;9.940;2023-03-24T08:23:19;1.60;;;1.60;;
9270;SDS011;4673;53.458;9.940;2023-03-24T08:25:45;1.90;;;1.90;;
9270;SDS011;4673;53.458;9.940;2023-03-24T08:28:11;1.40;;;1.40;;
9270;SDS011;4673;53.458;9.940;2023-03-24T08:30:38;1.50;;;1.50;;
9270;SDS011;4673;53.458;9.940;2023-03-24T08:33:11;1.50;;;1.50;;
9270;SDS011;4673;53.458;9.940;2023-03-24T08:35:38;2.00;;;2.00;;
9270;SDS011;4673;53.458;9.940;2023-03-24T08:38:05;1.23;;;1.23;;
9270;SDS011;4673;53.458;9.940;2023-03-24T08:40:32;1.37;;;1.37;;
9270;SDS011;4673;53.458;9.940;2023-03-24T08:42:59;1.50;;;1.50;;
9270;SDS011;4673;53.458;9.940;2023-03-24T08:45:28;1.30;;;1.30;;
9270;SDS011;4673;53.458;9.940;2023-03-24T08:47:56;1.60;;;1.60;;
9270;SDS011;4673;53.458;9.940;2023-03-24T08:50:25;1.40;;;1.40;;
9270;SDS011;4673;53.458;9.940;2023-03-24T08:52:53;1.40;;;1.40;;
9270;SDS011;4673;53.458;9.940;2023-03-24T08:55:19;1.33;;;1.33;;
9270;SDS011;4673;53.458;9.940;2023-03-24T08:57:45;1.43;;;1.43;;
9270;SDS011;4673;53.458;9.940;2023-03-24T09:00:11;1.47;;;1.47;;
9270;SDS011;4673;53.458;9.940;2023-03-24T09:02:39;1.57;;;1.57;;
9270;SDS011;4673;53.458;9.940;2023-03-24T09:05:09;1.70;;;1.70;;
9270;SDS011;4673;53.458;9.940;2023-03-24T09:07:35;1.20;;;1.20;;
9270;SDS011;4673;53.458;9.940;2023-03-24T09:10:01;1.73;;;1.73;;
9270;SDS011;4673;53.458;9.940;2023-03-24T09:12:29;1.43;;;1.43;;
9270;SDS011;4673;53.458;9.940;2023-03-24T09:14:55;1.40;;;1.40;;
9270;SDS011;4673;53.458;9.940;2023-03-24T09:17:20;1.50;;;1.50;;
9270;SDS011;4673;53.458;9.940;2023-03-24T09:19:46;1.40;;;1.40;;
9270;SDS011;4673;53.458;9.940;2023-03-24T09:22:12;1.40;;;1.40;;
9270;SDS011;4673;53.458;9.940;2023-03-24T09:24:37;2.30;;;2.30;;
9270;SDS011;4673;53.458;9.940;2023-03-24T09:27:03;2.17;;;2.17;;
9270;SDS011;4673;53.458;9.940;2023-03-24T09:29:29;1.80;;;1.80;;
9270;SDS011;4673;53.458;9.940;2023-03-24T09:31:55;2.00;;;2.00;;
9270;SDS011;4673;53.458;9.940;2023-03-24T09:34:22;1.47;;;1.47;;
9270;SDS011;4673;53.458;9.940;2023-03-24T09:36:48;1.60;;;1.60;;
9270;SDS011;4673;53.458;9.940;2023-03-24T09:39:15;2.33;;;2.33;;
9270;SDS011;4673;53.458;9.940;2023-03-24T09:41:41;1.70;;;1.70;;
9270;SDS011;4673;53.458;9.940;2023-03-24T09:49:38;2.00;;;2.00;;
9270;SDS011;4673;53.458;9.940;2023-03-24T09:52:06;2.47;;;2.47;;
9270;SDS011;4673;53.458;9.940;2023-03-24T09:54:51;2.23;;;2.23;;
9270;SDS011;4673;53.458;9.940;2023-03-24T09:57:21;2.53;;;2.53;;
9270;SDS011;4673;53.458;9.940;2023-03-24T10:00:00;1.37;;;1.37;;
9270;SDS011;4673;53.458;9.940;2023-03-24T10:02:27;3.33;;;3.33;;
9270;SDS011;4673;53.458;9.940;2023-03-24T10:04:54;1.97;;;1.97;;
9270;SDS011;4673;53.458;9.940;2023-03-24T10:07:42;1.87;;;1.87;;
9270;SDS011;4673;53.458;9.940;2023-03-24T10:10:29;1.80;;;1.80;;
9270;SDS011;4673;53.458;9.940;2023-03-24T10:13:23;2.13;;;2.13;;
9270;SDS011;4673;53.458;9.940;2023-03-24T10:18:50;1.42;;;1.42;;
9270;SDS011;4673;53.458;9.940;2023-03-24T10:21:35;1.87;;;1.87;;
9270;SDS011;4673;53.458;9.940;2023-03-24T10:26:41;1.80;;;1.80;;
9270;SDS011;4673;53.458;9.940;2023-03-24T10:29:27;2.03;;;2.03;;
9270;SDS011;4673;53.458;9.940;2023-03-24T10:32:05;1.52;;;1.52;;
9270;SDS011;4673;53.458;9.940;2023-03-24T10:34:47;2.08;;;2.08;;
9270;SDS011;4673;53.458;9.940;2023-03-24T10:37:19;1.65;;;1.65;;
9270;SDS011;4673;53.458;9.940;2023-03-24T10:39:47;2.13;;;2.13;;
9270;SDS011;4673;53.458;9.940;2023-03-24T10:42:15;1.75;;;1.75;;
9270;SDS011;4673;53.458;9.940;2023-03-24T10:44:44;1.25;;;1.25;;
9270;SDS011;4673;53.458;9.940;2023-03-24T10:47:12;2.03;;;2.03;;
9270;SDS011;4673;53.458;9.940;2023-03-24T10:49:45;1.88;;;1.88;;
9270;SDS011;4673;53.458;9.940;2023-03-24T10:52:17;1.75;;;1.75;;
9270;SDS011;4673;53.458;9.940;2023-03-24T10:54:52;1.65;;;1.65;;
9270;SDS011;4673;53.458;9.940;2023-03-24T10:57:19;1.60;;;1.60;;
9270;SDS011;4673;53.458;9.940;2023-03-24T11:02:43;1.98;;;1.98;;
9270;SDS011;4673;53.458;9.940;2023-03-24T11:07:43;2.28;;;2.28;;
9270;SDS011;4673;53.458;9.940;2023-03-24T11:10:16;1.52;;;1.52;;
9270;SDS011;4673;53.458;9.940;2023-03-24T11:15:27;2.05;;;2.05;;
9270;SDS011;4673;53.458;9.940;2023-03-24T11:17:58;1.63;;;1.63;;
9270;SDS011;4673;53.458;9.940;2023-03-24T11:22:54;2.15;;;2.15;;
9270;SDS011;4673;53.458;9.940;2023-03-24T11:25:45;1.73;;;1.73;;
9270;SDS011;4673;53.458;9.940;2023-03-24T11:28:17;1.70;;;1.70;;
9270;SDS011;4673;53.458;9.940;2023-03-24T11:30:49;1.85;;;1.85;;
9270;SDS011;4673;53.458;9.940;2023-03-24T11:35:51;1.95;;;1.95;;
9270;SDS011;4673;53.458;9.940;2023-03-24T11:38:18;2.20;;;2.20;;
9270;SDS011;4673;53.458;9.940;2023-03-24T11:40:56;1.77;;;1.77;;
9270;SDS011;4673;53.458;9.940;2023-03-24T11:43:24;2.78;;;2.78;;
9270;SDS011;4673;53.458;9.940;2023-03-24T11:45:55;2.35;;;2.35;;
9270;SDS011;4673;53.458;9.940;2023-03-24T11:51:15;1.95;;;1.95;;
9270;SDS011;4673;53.458;9.940;2023-03-24T11:54:03;1.77;;;1.77;;
9270;SDS011;4673;53.458;9.940;2023-03-24T12:01:50;2.47;;;2.47;;
9270;SDS011;4673;53.458;9.940;2023-03-24T12:10:20;2.58;;;2.58;;
9270;SDS011;4673;53.458;9.940;2023-03-24T12:15:27;1.75;;;1.75;;
9270;SDS011;4673;53.458;9.940;2023-03-24T12:18:01;2.72;;;2.72;;
9270;SDS011;4673;53.458;9.940;2023-03-24T12:21:17;1.75;;;1.75;;
9270;SDS011;4673;53.458;9.940;2023-03-24T12:23:57;2.17;;;2.17;;
9270;SDS011;4673;53.458;9.940;2023-03-24T12:26:32;1.65;;;1.65;;
9270;SDS011;4673;53.458;9.940;2023-03-24T12:43:22;2.25;;;2.25;;
9270;SDS011;4673;53.458;9.940;2023-03-24T12:46:03;2.30;;;2.30;;
9270;SDS011;4673;53.458;9.940;2023-03-24T12:51:35;2.03;;;2.03;;
9270;SDS011;4673;53.458;9.940;2023-03-24T12:54:17;2.00;;;2.00;;
9270;SDS011;4673;53.458;9.940;2023-03-24T12:57:01;2.22;;;2.22;;
9270;SDS011;4673;53.458;9.940;2023-03-24T12:59:37;2.47;;;2.47;;
9270;SDS011;4673;53.458;9.940;2023-03-24T13:04:51;2.38;;;2.38;;
9270;SDS011;4673;53.458;9.940;2023-03-24T13:07:22;2.35;;;2.35;;
9270;SDS011;4673;53.458;9.940;2023-03-24T13:10:06;2.88;;;2.88;;
9270;SDS011;4673;53.458;9.940;2023-03-24T13:13:03;2.25;;;2.25;;
9270;SDS011;4673;53.458;9.940;2023-03-24T13:15:56;2.45;;;2.45;;
9270;SDS011;4673;53.458;9.940;2023-03-24T13:20:51;2.22;;;2.22;;
9270;SDS011;4673;53.458;9.940;2023-03-24T13:26:07;2.00;;;2.00;;
9270;SDS011;4673;53.458;9.940;2023-03-24T13:31:28;2.20;;;2.20;;
9270;SDS011;4673;53.458;9.940;2023-03-24T13:33:59;1.88;;;1.88;;
9270;SDS011;4673;53.458;9.940;2023-03-24T13:37:01;2.38;;;2.38;;
9270;SDS011;4673;53.458;9.940;2023-03-24T13:39:39;1.98;;;1.98;;
9270;SDS011;4673;53.458;9.940;2023-03-24T13:42:19;1.85;;;1.85;;
9270;SDS011;4673;53.458;9.940;2023-03-24T13:45:00;1.95;;;1.95;;
9270;SDS011;4673;53.458;9.940;2023-03-24T13:47:51;2.17;;;2.17;;
9270;SDS011;4673;53.458;9.940;2023-03-24T13:50:46;2.05;;;2.05;;
9270;SDS011;4673;53.458;9.940;2023-03-24T13:53:18;1.40;;;1.40;;
9270;SDS011;4673;53.458;9.940;2023-03-24T13:56:01;2.07;;;2.07;;
9270;SDS011;4673;53.458;9.940;2023-03-24T13:58:49;2.00;;;2.00;;
9270;SDS011;4673;53.458;9.940;2023-03-24T14:01:32;1.65;;;1.65;;
9270;SDS011;4673;53.458;9.940;2023-03-24T14:09:29;2.38;;;2.38;;
9270;SDS011;4673;53.458;9.940;2023-03-24T14:14:29;1.65;;;1.65;;
9270;SDS011;4673;53.458;9.940;2023-03-24T14:17:05;2.03;;;2.03;;
9270;SDS011;4673;53.458;9.940;2023-03-24T14:24:37;1.60;;;1.60;;
9270;SDS011;4673;53.458;9.940;2023-03-24T14:27:21;1.40;;;1.40;;
9270;SDS011;4673;53.458;9.940;2023-03-24T14:29:58;2.10;;;2.10;;
9270;SDS011;4673;53.458;9.940;2023-03-24T14:32:26;2.38;;;2.38;;
9270;SDS011;4673;53.458;9.940;2023-03-24T14:34:53;1.50;;;1.50;;
9270;SDS011;4673;53.458;9.940;2023-03-24T14:37:22;2.25;;;2.25;;
9270;SDS011;4673;53.458;9.940;2023-03-24T14:39:49;1.75;;;1.75;;
9270;SDS011;4673;53.458;9.940;2023-03-24T14:42:25;2.30;;;2.30;;
9270;SDS011;4673;53.458;9.940;2023-03-24T14:44:53;1.73;;;1.73;;
9270;SDS011;4673;53.458;9.940;2023-03-24T14:47:29;1.70;;;1.70;;
9270;SDS011;4673;53.458;9.940;2023-03-24T14:50:00;1.83;;;1.83;;
9270;SDS011;4673;53.458;9.940;2023-03-24T14:52:36;2.38;;;2.38;;
9270;SDS011;4673;53.458;9.940;2023-03-24T14:55:10;1.88;;;1.88;;
9270;SDS011;4673;53.458;9.940;2023-03-24T14:57:47;1.20;;;1.20;;
9270;SDS011;4673;53.458;9.940;2023-03-24T15:04:08;1.50;;;1.50;;
9270;SDS011;4673;53.458;9.940;2023-03-24T15:06:13;2.58;;;2.58;;
9270;SDS011;4673;53.458;9.940;2023-03-24T15:08:44;1.52;;;1.52;;
9270;SDS011;4673;53.458;9.940;2023-03-24T15:11:16;2.15;;;2.15;;
9270;SDS011;4673;53.458;9.940;2023-03-24T15:16:26;1.43;;;1.43;;
9270;SDS011;4673;53.458;9.940;2023-03-24T15:18:55;1.60;;;1.60;;
9270;SDS011;4673;53.458;9.940;2023-03-24T15:23:48;2.23;;;2.23;;
9270;SDS011;4673;53.458;9.940;2023-03-24T15:26:15;2.10;;;2.10;;
9270;SDS011;4673;53.458;9.940;2023-03-24T15:28:42;1.35;;;1.35;;
9270;SDS011;4673;53.458;9.940;2023-03-24T15:31:08;1.42;;;1.42;;
9270;SDS011;4673;53.458;9.940;2023-03-24T15:33:40;1.60;;;1.60;;
9270;SDS011;4673;53.458;9.940;2023-03-24T15:36:19;1.50;;;1.50;;
9270;SDS011;4673;53.458;9.940;2023-03-24T15:38:48;1.77;;;1.77;;
9270;SDS011;4673;53.458;9.940;2023-03-24T15:41:16;1.88;;;1.88;;
9270;SDS011;4673;53.458;9.940;2023-03-24T15:43:46;1.52;;;1.52;;
9270;SDS011;4673;53.458;9.940;2023-03-24T15:46:18;1.70;;;1.70;;
9270;SDS011;4673;53.458;9.940;2023-03-24T15:48:55;1.50;;;1.50;;
9270;SDS011;4673;53.458;9.940;2023-03-24T15:54:23;1.95;;;1.95;;
9270;SDS011;4673;53.458;9.940;2023-03-24T15:57:19;1.70;;;1.70;;
9270;SDS011;4673;53.458;9.940;2023-03-24T16:02:31;1.80;;;1.80;;
9270;SDS011;4673;53.458;9.940;2023-03-24T16:05:09;2.53;;;2.53;;
9270;SDS011;4673;53.458;9.940;2023-03-24T16:07:56;2.20;;;2.20;;
9270;SDS011;4673;53.458;9.940;2023-03-24T16:13:15;2.28;;;2.28;;
9270;SDS011;4673;53.458;9.940;2023-03-24T16:15:43;2.15;;;2.15;;
9270;SDS011;4673;53.458;9.940;2023-03-24T16:18:14;1.90;;;1.90;;
9270;SDS011;4673;53.458;9.940;2023-03-24T16:20:43;1.73;;;1.73;;
9270;SDS011;4673;53.458;9.940;2023-03-24T16:23:11;1.88;;;1.88;;
9270;SDS011;4673;53.458;9.940;2023-03-24T16:25:37;1.40;;;1.40;;
9270;SDS011;4673;53.458;9.940;2023-03-24T16:28:03;2.00;;;2.00;;
9270;SDS011;4673;53.458;9.940;2023-03-24T16:30:31;2.00;;;2.00;;
9270;SDS011;4673;53.458;9.940;2023-03-24T16:33:03;2.67;;;2.67;;
9270;SDS011;4673;53.458;9.940;2023-03-24T16:35:29;1.87;;;1.87;;
9270;SDS011;4673;53.458;9.940;2023-03-24T16:37:55;1.60;;;1.60;;
9270;SDS011;4673;53.458;9.940;2023-03-24T16:40:24;1.77;;;1.77;;
9270;SDS011;4673;53.458;9.940;2023-03-24T16:42:52;2.07;;;2.07;;
9270;SDS011;4673;53.458;9.940;2023-03-24T16:45:18;2.00;;;2.00;;
9270;SDS011;4673;53.458;9.940;2023-03-24T16:47:44;2.27;;;2.27;;
9270;SDS011;4673;53.458;9.940;2023-03-24T16:50:24;1.77;;;1.77;;
9270;SDS011;4673;53.458;9.940;2023-03-24T16:52:51;1.90;;;1.90;;
9270;SDS011;4673;53.458;9.940;2023-03-24T16:55:17;1.87;;;1.87;;
9270;SDS011;4673;53.458;9.940;2023-03-24T16:57:42;1.47;;;1.47;;
9270;SDS011;4673;53.458;9.940;2023-03-24T17:00:08;1.67;;;1.67;;
9270;SDS011;4673;53.458;9.940;2023-03-24T17:02:35;2.03;;;2.03;;
9270;SDS011;4673;53.458;9.940;2023-03-24T17:05:04;2.80;;;2.80;;
9270;SDS011;4673;53.458;9.940;2023-03-24T17:07:44;2.00;;;2.00;;
9270;SDS011;4673;53.458;9.940;2023-03-24T17:10:09;2.33;;;2.33;;
9270;SDS011;4673;53.458;9.940;2023-03-24T17:12:35;1.60;;;1.60;;
9270;SDS011;4673;53.458;9.940;2023-03-24T17:15:01;2.30;;;2.30;;
9270;SDS011;4673;53.458;9.940;2023-03-24T17:17:27;2.20;;;2.20;;
9270;SDS011;4673;53.458;9.940;2023-03-24T17:19:53;2.30;;;2.30;;
9270;SDS011;4673;53.458;9.940;2023-03-24T17:22:21;2.07;;;2.07;;
9270;SDS011;4673;53.458;9.940;2023-03-24T17:24:49;2.40;;;2.40;;
9270;SDS011;4673;53.458;9.940;2023-03-24T17:27:21;2.00;;;2.00;;
9270;SDS011;4673;53.458;9.940;2023-03-24T17:29:48;1.87;;;1.87;;
9270;SDS011;4673;53.458;9.940;2023-03-24T17:32:13;2.10;;;2.10;;
9270;SDS011;4673;53.458;9.940;2023-03-24T17:34:43;1.90;;;1.90;;
9270;SDS011;4673;53.458;9.940;2023-03-24T17:37:09;2.63;;;2.63;;
9270;SDS011;4673;53.458;9.940;2023-03-24T17:39:35;2.97;;;2.97;;
9270;SDS011;4673;53.458;9.940;2023-03-24T17:42:02;2.83;;;2.83;;
9270;SDS011;4673;53.458;9.940;2023-03-24T17:44:28;1.80;;;1.80;;
9270;SDS011;4673;53.458;9.940;2023-03-24T17:46:54;1.90;;;1.90;;
9270;SDS011;4673;53.458;9.940;2023-03-24T17:49:20;2.13;;;2.13;;
9270;SDS011;4673;53.458;9.940;2023-03-24T17:51:45;1.30;;;1.30;;
9270;SDS011;4673;53.458;9.940;2023-03-24T17:54:11;1.70;;;1.70;;
9270;SDS011;4673;53.458;9.940;2023-03-24T17:56:37;1.63;;;1.63;;
9270;SDS011;4673;53.458;9.940;2023-03-24T17:59:04;1.57;;;1.57;;
9270;SDS011;4673;53.458;9.940;2023-03-24T18:01:30;2.00;;;2.00;;
9270;SDS011;4673;53.458;9.940;2023-03-24T18:03:58;1.70;;;1.70;;
9270;SDS011;4673;53.458;9.940;2023-03-24T18:06:25;1.53;;;1.53;;
9270;SDS011;4673;53.458;9.940;2023-03-24T18:08:51;1.47;;;1.47;;
9270;SDS011;4673;53.458;9.940;2023-03-24T18:11:17;1.50;;;1.50;;
9270;SDS011;4673;53.458;9.940;2023-03-24T18:13:43;1.60;;;1.60;;
9270;SDS011;4673;53.458;9.940;2023-03-24T18:16:09;2.03;;;2.03;;
9270;SDS011;4673;53.458;9.940;2023-03-24T18:18:35;1.63;;;1.63;;